Terminal Aerodrome Forecast
Issued by NWS Lake Charles, LA

Home | Current Version | Previous Version | Text Only | Print | Product List | Glossary On
Versions: 1 2 3 4 5 6 7 8 9 10 11 12 13 14 15 16 17 18
000
FTUS44 KLCH 171700
TAFAEX
TAF
KAEX 171730Z 1718/1818 VRB03KT P6SM FEW030 SCT200
     FM180100 VRB03KT P6SM BKN250
     FM180800 00000KT 4SM BR SCT005
      TEMPO 1810/1813 1SM BR BKN002
     FM181400 VRB03KT P6SM SCT015=

USA.gov is the U.S. government's official web portal to all federal, state and local government web resources and services.